Time;durP1;ratioP1;P1;durP2;ratioP2;P2;SDS_P1;SDS_P2;PMS_P1;PMS_P2;Temp;Humidity;BMP_temperature;BMP_pressure;BME280_temperature;BME280_humidity;BME280_pressure;Samples;Min_cycle;Max_cycle;Signal;HPM_P1;HPM_P2
2024/04/14 00:01:20;;;;;;;2.90;2.60;;;17.70;99.90;;;;;;5420467;26;20360;-73
2024/04/14 00:03:59;;;;;;;5.13;2.80;;;17.70;99.90;;;;;;5413457;26;20321;-73
2024/04/14 00:06:28;;;;;;;2.78;2.58;;;17.60;99.90;;;;;;5416802;26;20331;-74
2024/04/14 00:08:57;;;;;;;4.45;2.40;;;17.60;99.90;;;;;;5419492;26;20264;-74
2024/04/14 00:11:23;;;;;;;2.47;2.28;;;17.60;99.90;;;;;;5387363;26;20286;-74
2024/04/14 00:13:52;;;;;;;2.50;2.30;;;17.50;99.90;;;;;;5396746;26;20290;-73
2024/04/14 00:16:18;;;;;;;3.08;2.45;;;17.50;99.90;;;;;;5399467;26;20255;-73
2024/04/14 00:18:47;;;;;;;2.58;2.38;;;17.50;99.90;;;;;;5369815;26;20255;-74
2024/04/14 00:21:16;;;;;;;4.32;2.70;;;17.40;99.90;;;;;;5422015;26;21096;-74
2024/04/14 00:23:45;;;;;;;3.20;2.70;;;17.40;99.90;;;;;;5392102;26;20251;-73
2024/04/14 00:26:11;;;;;;;2.80;2.38;;;17.40;99.90;;;;;;5390881;26;20287;-74
2024/04/14 00:28:40;;;;;;;2.53;2.33;;;17.30;99.90;;;;;;5417683;26;20761;-74
2024/04/14 00:31:06;;;;;;;4.65;2.85;;;17.40;99.90;;;;;;5423590;26;20345;-74
2024/04/14 00:33:35;;;;;;;2.60;2.40;;;17.30;99.90;;;;;;5393937;26;20616;-74
2024/04/14 00:36:01;;;;;;;2.20;2.10;;;17.30;99.90;;;;;;5386543;26;20247;-73
2024/04/14 00:38:33;;;;;;;2.63;2.42;;;17.30;99.90;;;;;;5421288;26;20461;-73
2024/04/14 00:40:59;;;;;;;3.15;2.80;;;17.30;99.90;;;;;;5417409;26;20251;-74
2024/04/14 00:43:28;;;;;;;2.45;2.28;;;17.20;99.90;;;;;;5330946;26;20378;-74
2024/04/14 00:45:54;;;;;;;3.15;2.30;;;17.20;99.90;;;;;;5417211;26;20298;-73
2024/04/14 00:48:24;;;;;;;2.35;2.00;;;17.20;99.90;;;;;;5398559;26;20651;-73
2024/04/14 00:50:51;;;;;;;2.65;2.45;;;17.10;99.90;;;;;;5422207;26;20678;-73
2024/04/14 00:53:21;;;;;;;2.55;2.13;;;17.10;99.90;;;;;;5422328;26;20281;-73
2024/04/14 00:55:50;;;;;;;2.50;2.30;;;17.10;99.90;;;;;;5421393;26;20256;-73
2024/04/14 00:58:19;;;;;;;3.60;2.58;;;17.00;99.90;;;;;;5394010;26;20272;-73
2024/04/14 01:00:47;;;;;;;2.33;2.13;;;17.00;99.90;;;;;;5421071;26;20773;-73
2024/04/14 01:03:15;;;;;;;2.72;2.47;;;16.90;99.90;;;;;;5389509;26;20327;-73
2024/04/14 01:05:42;;;;;;;3.08;2.35;;;16.80;99.90;;;;;;5410119;26;20252;-73
2024/04/14 01:08:10;;;;;;;2.75;2.20;;;16.70;99.90;;;;;;5413884;26;20372;-74
2024/04/14 01:10:37;;;;;;;3.10;2.60;;;16.70;99.90;;;;;;5419102;26;20250;-73
2024/04/14 01:13:08;;;;;;;2.30;2.10;;;16.70;99.90;;;;;;5426902;26;20748;-73
2024/04/14 01:15:35;;;;;;;2.70;2.50;;;16.70;99.90;;;;;;5418232;26;20278;-74
2024/04/14 01:18:05;;;;;;;3.58;2.30;;;16.60;99.90;;;;;;5366531;26;20275;-75
2024/04/14 01:20:31;;;;;;;2.70;2.50;;;16.60;99.90;;;;;;5421099;26;20259;-74
2024/04/14 01:23:02;;;;;;;2.40;2.20;;;16.60;99.90;;;;;;5428027;26;20897;-75
2024/04/14 01:25:31;;;;;;;3.20;2.22;;;16.60;99.90;;;;;;5363446;26;20906;-76
2024/04/14 01:28:00;;;;;;;2.08;1.98;;;16.50;99.90;;;;;;5430725;26;20263;-74
2024/04/14 01:30:27;;;;;;;2.28;2.08;;;16.50;99.90;;;;;;5431155;26;20239;-75
2024/04/14 01:32:56;;;;;;;2.35;2.15;;;16.50;99.90;;;;;;5401884;26;20289;-74
2024/04/14 01:35:22;;;;;;;2.38;2.17;;;16.50;99.90;;;;;;5429725;26;20255;-74
2024/04/14 01:37:52;;;;;;;2.25;2.00;;;16.50;99.90;;;;;;5429622;26;20305;-74
2024/04/14 01:40:18;;;;;;;2.15;1.90;;;16.50;99.90;;;;;;5408729;26;20254;-74
2024/04/14 01:42:51;;;;;;;3.13;2.25;;;16.50;99.90;;;;;;5393714;26;20764;-74
2024/04/14 01:45:17;;;;;;;3.63;2.40;;;16.40;99.90;;;;;;5382276;26;20374;-74
2024/04/14 01:47:46;;;;;;;2.42;2.25;;;16.50;99.90;;;;;;5396768;26;20874;-74
2024/04/14 01:50:12;;;;;;;2.30;2.10;;;16.40;99.90;;;;;;5410167;26;20799;-74
2024/04/14 01:52:41;;;;;;;3.63;2.90;;;16.30;99.90;;;;;;5435789;26;20251;-76
2024/04/14 01:55:07;;;;;;;2.30;2.20;;;16.30;99.90;;;;;;5410331;26;20621;-76
2024/04/14 01:57:39;;;;;;;2.40;2.17;;;16.20;99.90;;;;;;5430677;26;20247;-75
2024/04/14 02:00:09;;;;;;;2.90;2.45;;;16.20;99.90;;;;;;5405431;26;20244;-73
2024/04/14 02:02:38;;;;;;;2.30;2.10;;;16.10;99.90;;;;;;5407943;26;20248;-73
2024/04/14 02:05:04;;;;;;;2.03;1.92;;;16.10;99.90;;;;;;5420895;26;20256;-74
2024/04/14 02:07:34;;;;;;;2.50;2.30;;;16.10;99.90;;;;;;5430660;26;20289;-74
2024/04/14 02:10:02;;;;;;;2.50;2.30;;;16.10;99.90;;;;;;5402199;26;20618;-74
2024/04/14 02:12:32;;;;;;;2.30;2.10;;;16.00;99.90;;;;;;5409544;26;20375;-73
2024/04/14 02:14:58;;;;;;;4.60;1.98;;;16.00;99.90;;;;;;5404785;26;20259;-73
2024/04/14 02:17:31;;;;;;;3.92;2.10;;;16.00;99.90;;;;;;5424993;26;20389;-74
2024/04/14 02:19:57;;;;;;;2.33;1.90;;;16.00;99.90;;;;;;5382989;26;20302;-74
2024/04/14 02:22:25;;;;;;;2.35;2.10;;;16.00;99.90;;;;;;5404803;26;20564;-74
2024/04/14 02:24:51;;;;;;;2.10;2.00;;;15.90;99.90;;;;;;5417994;26;20259;-74
2024/04/14 02:27:22;;;;;;;2.20;2.00;;;15.90;99.90;;;;;;5431005;26;20305;-76
2024/04/14 02:29:48;;;;;;;2.72;2.08;;;15.90;99.90;;;;;;5403272;26;20294;-75
2024/04/14 02:32:19;;;;;;;2.20;2.10;;;15.90;99.90;;;;;;5424753;26;20251;-75
2024/04/14 02:34:48;;;;;;;1.95;1.75;;;15.90;99.90;;;;;;5438030;26;20794;-72
2024/04/14 02:37:17;;;;;;;2.47;2.20;;;15.90;99.90;;;;;;5426717;26;20326;-75
2024/04/14 02:39:43;;;;;;;2.38;2.17;;;15.90;99.90;;;;;;5431356;26;20255;-73
2024/04/14 02:42:12;;;;;;;2.40;2.20;;;15.90;99.90;;;;;;5428515;26;20286;-75
2024/04/14 02:44:39;;;;;;;2.70;2.38;;;15.80;99.90;;;;;;5398434;26;20296;-73
2024/04/14 02:47:08;;;;;;;2.55;2.38;;;15.70;99.90;;;;;;5405300;26;20303;-74
2024/04/14 02:49:34;;;;;;;2.63;2.10;;;15.60;99.90;;;;;;5424082;26;20862;-73
2024/04/14 02:52:06;;;;;;;2.28;2.00;;;15.60;99.90;;;;;;5426955;26;20376;-73
2024/04/14 02:54:32;;;;;;;4.93;2.60;;;15.60;99.90;;;;;;5459149;26;20339;-73
2024/04/14 02:57:01;;;;;;;2.22;2.03;;;15.60;99.90;;;;;;5429208;26;20251;-74
2024/04/14 02:59:27;;;;;;;2.45;2.22;;;15.60;99.90;;;;;;5432465;26;20654;-74
2024/04/14 03:01:56;;;;;;;2.47;2.28;;;15.50;99.90;;;;;;5400781;26;20297;-74
2024/04/14 03:04:23;;;;;;;2.22;2.08;;;15.50;99.90;;;;;;5397444;26;20254;-73
2024/04/14 03:06:52;;;;;;;4.97;2.15;;;15.50;99.90;;;;;;5423058;26;20657;-73
2024/04/14 03:09:20;;;;;;;1.98;1.80;;;15.50;99.90;;;;;;5421199;26;20256;-73
2024/04/14 03:11:49;;;;;;;2.05;1.95;;;15.40;99.90;;;;;;5429992;26;20711;-73
2024/04/14 03:14:15;;;;;;;3.20;2.33;;;15.40;99.90;;;;;;5425737;26;20247;-73
2024/04/14 03:16:44;;;;;;;2.70;2.08;;;15.40;99.90;;;;;;5423893;26;20291;-73
2024/04/14 03:19:10;;;;;;;2.20;2.00;;;15.40;99.90;;;;;;5422947;26;20373;-73
2024/04/14 03:21:39;;;;;;;2.53;2.30;;;15.30;99.90;;;;;;5423054;26;20445;-74
2024/04/14 03:24:05;;;;;;;2.50;2.35;;;15.30;99.90;;;;;;5427383;26;20259;-74
2024/04/14 03:26:37;;;;;;;2.47;2.28;;;15.20;99.90;;;;;;5427049;26;20317;-73
2024/04/14 03:29:03;;;;;;;4.05;2.30;;;15.20;99.90;;;;;;5394738;26;20791;-73
2024/04/14 03:31:31;;;;;;;2.40;2.22;;;15.20;99.90;;;;;;5426072;26;20263;-75
2024/04/14 03:33:57;;;;;;;2.50;2.30;;;15.20;99.90;;;;;;5425674;26;20258;-74
2024/04/14 03:36:26;;;;;;;2.33;2.13;;;15.20;99.90;;;;;;5428239;26;21182;-74
2024/04/14 03:38:55;;;;;;;2.40;2.20;;;15.20;99.90;;;;;;5419774;26;20256;-75
2024/04/14 03:41:24;;;;;;;2.30;2.20;;;15.10;99.90;;;;;;5410991;26;20977;-74
2024/04/14 03:43:55;;;;;;;2.90;2.10;;;15.10;99.90;;;;;;5425443;26;20328;-74
2024/04/14 03:46:24;;;;;;;2.10;2.00;;;15.00;99.90;;;;;;5423047;26;20614;-74
2024/04/14 03:48:50;;;;;;;2.22;2.03;;;15.00;99.90;;;;;;5436555;26;20672;-76
2024/04/14 03:51:19;;;;;;;2.15;1.80;;;14.90;99.90;;;;;;5387173;26;20244;-75
2024/04/14 03:53:45;;;;;;;2.28;2.08;;;14.90;99.90;;;;;;5418856;26;20256;-75
2024/04/14 03:56:14;;;;;;;2.20;2.10;;;14.90;99.90;;;;;;5420718;26;20285;-74
2024/04/14 03:58:41;;;;;;;1.92;1.83;;;15.00;99.90;;;;;;5421390;26;21091;-75
2024/04/14 04:01:13;;;;;;;2.47;2.28;;;14.90;99.90;;;;;;5389643;26;20302;-74
2024/04/14 04:03:39;;;;;;;2.00;1.80;;;14.80;99.90;;;;;;5432447;26;20294;-74
2024/04/14 04:06:07;;;;;;;2.00;1.90;;;14.80;99.90;;;;;;5426864;26;20819;-74
2024/04/14 04:08:33;;;;;;;2.22;2.03;;;14.80;99.90;;;;;;5425969;26;20266;-74
2024/04/14 04:11:05;;;;;;;2.13;2.00;;;14.80;99.90;;;;;;5401904;26;20294;-74
2024/04/14 04:13:32;;;;;;;2.92;1.90;;;14.90;99.90;;;;;;5418761;26;20285;-73
2024/04/14 04:16:03;;;;;;;4.25;2.10;;;14.90;99.90;;;;;;5427070;26;20802;-74
2024/04/14 04:18:33;;;;;;;6.43;2.13;;;14.90;99.90;;;;;;5426928;26;21737;-74
2024/04/14 04:21:05;;;;;;;1.80;1.70;;;14.90;99.90;;;;;;5440592;26;20328;-74
2024/04/14 04:23:32;;;;;;;1.83;1.73;;;14.80;99.90;;;;;;5423765;26;20307;-74
2024/04/14 04:26:02;;;;;;;1.90;1.75;;;14.80;99.90;;;;;;5430192;26;20317;-76
2024/04/14 04:28:29;;;;;;;2.03;1.90;;;14.70;99.90;;;;;;5427786;26;20298;-74
2024/04/14 04:30:59;;;;;;;2.20;2.00;;;14.70;99.90;;;;;;5396595;26;20324;-75
2024/04/14 04:33:26;;;;;;;2.33;2.10;;;14.70;99.90;;;;;;5420383;26;20274;-76
2024/04/14 04:36:00;;;;;;;2.47;1.98;;;14.70;99.90;;;;;;5425651;26;20748;-74
2024/04/14 04:38:26;;;;;;;2.13;1.90;;;14.70;99.90;;;;;;5400725;26;20788;-74
2024/04/14 04:40:55;;;;;;;2.28;1.92;;;14.70;99.90;;;;;;5424465;26;20328;-75
2024/04/14 04:43:23;;;;;;;2.40;2.22;;;14.70;99.90;;;;;;5425791;26;20268;-74
2024/04/14 04:45:52;;;;;;;2.10;1.90;;;14.70;99.90;;;;;;5399702;26;20267;-74
2024/04/14 04:48:19;;;;;;;1.98;1.80;;;14.60;99.90;;;;;;5426924;26;20356;-74
2024/04/14 04:50:48;;;;;;;1.98;1.88;;;14.60;99.90;;;;;;5394025;26;20281;-73
2024/04/14 04:53:17;;;;;;;2.08;1.92;;;14.60;99.90;;;;;;5425817;26;20251;-73
2024/04/14 04:55:47;;;;;;;2.00;1.90;;;14.60;99.90;;;;;;5392201;26;20335;-73
2024/04/14 04:58:16;;;;;;;2.92;2.35;;;14.60;99.90;;;;;;5415782;26;20671;-73
2024/04/14 05:00:53;;;;;;;1.80;1.70;;;14.60;99.90;;;;;;5426799;26;20586;-72
2024/04/14 05:03:20;;;;;;;2.30;2.10;;;14.60;99.90;;;;;;5431900;26;20251;-73
2024/04/14 05:05:57;;;;;;;3.20;2.10;;;14.60;99.90;;;;;;5431437;26;20244;-74
2024/04/14 05:08:29;;;;;;;3.47;2.20;;;14.60;99.90;;;;;;5398282;26;20255;-73
2024/04/14 05:10:56;;;;;;;2.67;2.10;;;14.50;99.90;;;;;;5450500;26;20255;-74
2024/04/14 05:13:25;;;;;;;2.15;2.00;;;14.60;99.90;;;;;;5435388;26;20728;-74
2024/04/14 05:15:51;;;;;;;2.10;2.00;;;14.80;99.90;;;;;;5400812;26;20323;-75
2024/04/14 05:18:20;;;;;;;1.92;1.83;;;15.10;99.90;;;;;;5425590;26;20297;-74
2024/04/14 05:20:47;;;;;;;2.10;1.90;;;15.40;99.90;;;;;;5454243;26;20659;-76
2024/04/14 05:23:16;;;;;;;1.73;1.63;;;15.70;99.90;;;;;;5404528;26;20246;-75
2024/04/14 05:25:48;;;;;;;2.00;1.90;;;16.10;99.90;;;;;;5425513;26;20251;-74
2024/04/14 05:28:17;;;;;;;2.05;1.73;;;16.40;99.90;;;;;;5425584;26;20251;-74
2024/04/14 05:30:43;;;;;;;1.80;1.70;;;16.70;99.90;;;;;;5427929;26;20298;-74
2024/04/14 05:33:12;;;;;;;1.73;1.60;;;17.00;99.90;;;;;;5433835;26;20255;-75
2024/04/14 05:35:38;;;;;;;2.00;1.90;;;17.30;99.90;;;;;;5392166;26;20316;-75
2024/04/14 05:38:08;;;;;;;2.83;1.52;;;17.40;99.90;;;;;;5430012;26;20321;-74
2024/04/14 05:40:34;;;;;;;1.80;1.70;;;17.50;99.90;;;;;;5425403;26;20374;-75
2024/04/14 05:43:06;;;;;;;2.10;2.00;;;17.70;99.90;;;;;;5428136;26;20255;-75
2024/04/14 05:45:32;;;;;;;5.00;2.20;;;17.90;99.90;;;;;;5432769;26;20889;-76
2024/04/14 05:48:00;;;;;;;2.40;1.80;;;18.10;99.90;;;;;;5434343;26;20263;-76
2024/04/14 05:50:26;;;;;;;2.38;1.90;;;18.30;99.90;;;;;;5401757;26;20267;-75
2024/04/14 05:52:56;;;;;;;1.70;1.60;;;18.50;99.90;;;;;;5427927;26;20364;-75
2024/04/14 05:55:22;;;;;;;2.08;1.90;;;18.80;99.90;;;;;;5373106;26;20800;-75
2024/04/14 05:57:51;;;;;;;2.83;1.98;;;18.90;99.90;;;;;;5420655;26;20593;-75
2024/04/14 06:00:20;;;;;;;2.10;2.00;;;19.10;99.90;;;;;;5400701;26;20244;-75
2024/04/14 06:02:49;;;;;;;3.00;2.30;;;19.20;99.90;;;;;;5426454;26;20255;-75
2024/04/14 06:05:15;;;;;;;1.80;1.70;;;19.50;99.90;;;;;;5375810;26;20303;-75
2024/04/14 06:07:44;;;;;;;4.05;2.20;;;19.70;99.90;;;;;;5417162;26;20280;-74
2024/04/14 06:10:10;;;;;;;2.70;2.17;;;19.70;99.90;;;;;;5403783;26;20251;-72
2024/04/14 06:12:38;;;;;;;2.60;1.98;;;19.60;99.90;;;;;;5389550;26;20627;-74
2024/04/14 06:15:05;;;;;;;2.70;2.50;;;19.60;99.90;;;;;;5400932;26;20809;-74
2024/04/14 06:17:36;;;;;;;2.25;1.90;;;19.70;99.90;;;;;;5393785;26;20704;-74
2024/04/14 06:20:03;;;;;;;2.58;2.20;;;19.70;99.90;;;;;;5438259;26;20741;-74
2024/04/14 06:22:33;;;;;;;4.13;2.67;;;19.70;99.90;;;;;;5395835;26;20815;-74
2024/04/14 06:24:59;;;;;;;2.38;1.95;;;19.70;99.90;;;;;;5402435;26;20752;-74
2024/04/14 06:27:28;;;;;;;3.08;2.30;;;19.70;99.90;;;;;;5400978;26;20255;-74
2024/04/14 06:29:54;;;;;;;1.83;1.73;;;19.90;99.90;;;;;;5394227;26;20609;-74
2024/04/14 06:32:22;;;;;;;2.95;1.90;;;20.10;99.90;;;;;;5428962;26;20299;-74
2024/04/14 06:34:51;;;;;;;1.83;1.73;;;20.20;99.90;;;;;;5416115;26;20256;-75
2024/04/14 06:37:20;;;;;;;1.80;1.65;;;20.40;99.90;;;;;;5398749;26;20830;-74
2024/04/14 06:39:46;;;;;;;2.25;2.00;;;20.50;99.90;;;;;;5423629;26;20251;-73
2024/04/14 06:42:14;;;;;;;2.95;2.20;;;20.50;99.90;;;;;;5423193;26;20818;-74
2024/04/14 06:44:41;;;;;;;2.60;2.10;;;20.30;99.90;;;;;;5433023;26;20303;-74
2024/04/14 06:47:09;;;;;;;2.67;2.45;;;20.10;99.90;;;;;;5408180;26;20306;-74
2024/04/14 06:49:36;;;;;;;3.03;2.20;;;20.10;99.90;;;;;;5399932;26;20302;-74
2024/04/14 06:52:09;;;;;;;3.15;2.45;;;20.00;99.90;;;;;;5426110;26;20266;-75
2024/04/14 06:54:35;;;;;;;2.97;2.42;;;20.00;99.90;;;;;;5427246;26;20264;-74
2024/04/14 06:57:04;;;;;;;3.10;2.38;;;20.00;99.90;;;;;;5429690;26;20634;-70
2024/04/14 06:59:30;;;;;;;2.85;2.45;;;19.90;99.90;;;;;;5402858;26;20631;-75
2024/04/14 07:02:00;;;;;;;6.55;2.30;;;19.90;99.90;;;;;;5437727;26;20690;-75
2024/04/14 07:04:26;;;;;;;2.92;1.92;;;19.90;99.90;;;;;;5403423;26;20264;-74
2024/04/14 07:06:55;;;;;;;2.28;2.08;;;20.00;99.90;;;;;;5439951;26;20247;-75
2024/04/14 07:09:24;;;;;;;3.65;2.38;;;20.00;99.90;;;;;;5395436;26;20256;-75
2024/04/14 07:11:53;;;;;;;2.88;2.40;;;19.90;99.90;;;;;;5402656;26;20363;-75
2024/04/14 07:14:19;;;;;;;2.55;2.22;;;19.90;99.90;;;;;;5407854;26;20322;-75
2024/04/14 07:16:48;;;;;;;2.50;2.30;;;19.80;99.90;;;;;;5409740;26;20264;-75
2024/04/14 07:19:15;;;;;;;5.63;2.50;;;19.90;99.90;;;;;;5408839;26;20251;-73
2024/04/14 07:21:43;;;;;;;2.53;2.25;;;20.10;99.90;;;;;;5429385;26;20752;-75
2024/04/14 07:24:09;;;;;;;2.13;1.98;;;20.10;99.90;;;;;;5429442;26;20282;-74
2024/04/14 07:26:41;;;;;;;4.18;2.45;;;20.20;99.90;;;;;;5398217;26;20312;-75
2024/04/14 07:29:08;;;;;;;2.47;2.25;;;20.20;99.90;;;;;;5424231;26;20303;-74
2024/04/14 07:31:37;;;;;;;2.78;2.40;;;20.50;99.90;;;;;;5435695;26;21192;-74
2024/04/14 07:34:03;;;;;;;4.22;2.30;;;20.60;99.90;;;;;;5428797;26;20255;-75
2024/04/14 07:36:32;;;;;;;2.22;2.03;;;20.90;99.90;;;;;;5368874;26;20259;-75
2024/04/14 07:38:58;;;;;;;4.18;2.30;;;21.10;99.90;;;;;;5434680;26;20367;-74
2024/04/14 07:41:27;;;;;;;2.95;2.20;;;21.20;99.90;;;;;;5431579;26;20326;-75
2024/04/14 07:43:56;;;;;;;3.47;2.55;;;21.30;99.90;;;;;;5378464;26;20311;-74
2024/04/14 07:46:27;;;;;;;5.88;2.42;;;21.40;99.90;;;;;;5430216;26;20372;-72
2024/04/14 07:48:53;;;;;;;7.05;2.08;;;21.40;99.90;;;;;;5398135;26;20350;-72
2024/04/14 07:51:22;;;;;;;3.15;2.28;;;21.40;99.90;;;;;;5436234;26;20327;-72
2024/04/14 07:53:48;;;;;;;3.63;2.38;;;21.40;99.90;;;;;;5411036;26;21429;-72
2024/04/14 07:56:17;;;;;;;2.15;1.95;;;21.40;99.90;;;;;;5433724;26;20262;-72
2024/04/14 07:58:43;;;;;;;2.53;2.30;;;21.40;99.90;;;;;;5427638;26;20652;-72
2024/04/14 08:01:15;;;;;;;4.72;2.00;;;21.40;99.90;;;;;;5399409;26;20263;-72
2024/04/14 08:03:41;;;;;;;2.22;1.80;;;21.60;99.90;;;;;;5423282;26;20294;-72
2024/04/14 08:06:10;;;;;;;3.47;2.28;;;21.80;99.90;;;;;;5419729;26;20240;-72
2024/04/14 08:08:38;;;;;;;3.03;2.30;;;21.80;99.90;;;;;;5397105;26;20260;-72
2024/04/14 08:11:08;;;;;;;3.28;1.90;;;21.70;99.90;;;;;;5417571;26;20297;-72
2024/04/14 08:13:34;;;;;;;3.63;2.10;;;21.50;99.90;;;;;;5422800;26;20251;-71
2024/04/14 08:16:02;;;;;;;2.75;2.00;;;21.70;99.90;;;;;;5402466;26;20295;-72
2024/04/14 08:18:31;;;;;;;3.08;2.10;;;21.90;99.90;;;;;;5427069;26;20310;-72
2024/04/14 08:21:02;;;;;;;2.67;2.13;;;22.00;99.90;;;;;;5419135;26;20243;-71
2024/04/14 08:23:28;;;;;;;2.88;2.30;;;21.80;99.90;;;;;;5381711;26;20306;-72
2024/04/14 08:25:58;;;;;;;2.67;1.77;;;21.70;99.90;;;;;;5414015;26;20877;-72
2024/04/14 08:28:24;;;;;;;2.05;1.85;;;21.80;99.90;;;;;;5421898;26;20999;-72
2024/04/14 08:30:53;;;;;;;2.28;2.05;;;22.20;99.90;;;;;;5403717;26;20297;-71
2024/04/14 08:33:19;;;;;;;5.45;2.28;;;22.60;99.90;;;;;;5400904;26;20393;-72
2024/04/14 08:35:50;;;;;;;2.47;2.28;;;22.80;99.90;;;;;;5375461;26;20300;-72
2024/04/14 08:38:17;;;;;;;2.35;2.15;;;22.90;99.90;;;;;;5420884;26;20252;-72
2024/04/14 08:40:53;;;;;;;2.53;2.20;;;23.00;99.90;;;;;;5419859;26;20252;-72
2024/04/14 08:43:20;;;;;;;2.80;2.45;;;22.90;99.90;;;;;;5409670;26;20256;-72
2024/04/14 08:45:50;;;;;;;2.17;1.90;;;22.80;99.90;;;;;;5395313;26;20296;-72
2024/04/14 08:48:24;;;;;;;3.08;2.13;;;22.80;99.90;;;;;;5399702;26;20270;-72
2024/04/14 08:51:04;;;;;;;4.18;2.10;;;22.80;99.90;;;;;;5413751;26;21028;-71
2024/04/14 08:53:32;;;;;;;3.08;2.15;;;23.00;99.90;;;;;;5387835;26;20243;-72
2024/04/14 08:56:02;;;;;;;2.65;1.60;;;23.10;99.90;;;;;;5435022;26;20310;-71
2024/04/14 08:58:31;;;;;;;2.75;2.08;;;23.20;99.90;;;;;;5400682;26;20335;-72
2024/04/14 09:01:05;;;;;;;3.88;2.03;;;23.10;99.90;;;;;;5444384;26;20272;-72
2024/04/14 09:03:32;;;;;;;2.70;2.30;;;23.20;99.90;;;;;;5392136;26;20257;-72
2024/04/14 09:06:06;;;;;;;2.55;2.30;;;23.20;99.90;;;;;;5400663;26;20313;-72
2024/04/14 09:08:33;;;;;;;3.00;2.10;;;23.50;99.90;;;;;;5405583;26;20882;-72
2024/04/14 09:11:04;;;;;;;2.90;2.30;;;23.60;99.90;;;;;;5426848;26;21200;-72
2024/04/14 09:13:30;;;;;;;2.75;2.03;;;23.70;99.90;;;;;;5417034;26;20285;-73
2024/04/14 09:16:00;;;;;;;2.40;2.20;;;23.80;99.90;;;;;;5424801;26;21019;-73
2024/04/14 09:18:26;;;;;;;3.60;2.10;;;23.80;99.90;;;;;;5392820;26;20299;-73
2024/04/14 09:20:55;;;;;;;2.72;2.05;;;24.00;99.90;;;;;;5438209;26;20262;-73
2024/04/14 09:23:24;;;;;;;3.35;2.30;;;24.20;99.90;;;;;;5425720;26;20254;-73
2024/04/14 09:25:53;;;;;;;4.43;2.55;;;24.30;99.90;;;;;;5429782;26;20318;-73
2024/04/14 09:28:19;;;;;;;3.83;2.30;;;24.30;99.90;;;;;;5431152;26;20606;-72
2024/04/14 09:30:48;;;;;;;2.10;1.90;;;24.20;99.90;;;;;;5425782;26;20751;-74
2024/04/14 09:33:15;;;;;;;2.50;1.80;;;24.30;99.90;;;;;;5430223;26;20298;-75
2024/04/14 09:35:45;;;;;;;4.20;2.10;;;24.40;99.90;;;;;;5430788;26;20839;-76
2024/04/14 09:38:14;;;;;;;3.05;1.95;;;24.60;99.90;;;;;;5432171;26;20251;-76
2024/04/14 09:40:46;;;;;;;2.25;1.92;;;24.80;99.90;;;;;;5427734;26;20363;-76
2024/04/14 09:43:13;;;;;;;2.33;2.08;;;25.00;99.90;;;;;;5385146;26;20324;-76
2024/04/14 09:45:43;;;;;;;2.50;1.90;;;25.00;99.90;;;;;;5395281;26;20253;-77
2024/04/14 09:48:09;;;;;;;3.75;1.90;;;25.30;99.90;;;;;;5362329;26;20745;-76
2024/04/14 09:50:41;;;;;;;3.28;1.92;;;25.50;99.90;;;;;;5401992;26;20339;-76
2024/04/14 09:53:08;;;;;;;3.60;2.03;;;25.50;99.90;;;;;;5417931;26;20770;-77
2024/04/14 09:55:37;;;;;;;2.22;1.98;;;25.40;99.90;;;;;;5441650;26;20290;-74
2024/04/14 09:58:06;;;;;;;2.20;1.92;;;25.50;99.90;;;;;;5433963;26;20304;-76
2024/04/14 10:00:35;;;;;;;2.35;1.90;;;25.60;99.90;;;;;;5401046;26;20245;-74
2024/04/14 10:03:06;;;;;;;2.58;1.85;;;25.70;99.90;;;;;;5429766;26;20267;-74
2024/04/14 10:05:37;;;;;;;2.85;1.90;;;25.60;99.90;;;;;;5433632;26;20301;-74
2024/04/14 10:08:05;;;;;;;4.28;1.80;;;25.50;99.90;;;;;;5391069;26;20249;-76
2024/04/14 10:10:35;;;;;;;3.30;1.95;;;25.50;99.90;;;;;;5333194;26;20349;-74
2024/04/14 10:13:09;;;;;;;3.80;2.00;;;25.50;99.90;;;;;;5355819;26;22043;-75
2024/04/14 10:15:40;;;;;;;2.65;1.77;;;25.40;99.90;;;;;;5354942;26;20245;-74
2024/04/14 10:18:08;;;;;;;2.72;1.95;;;25.40;99.90;;;;;;5355596;26;20603;-74
2024/04/14 10:20:43;;;;;;;4.07;1.80;;;25.40;99.90;;;;;;5400869;26;20265;-74
2024/04/14 10:23:14;;;;;;;3.00;1.58;;;25.50;99.90;;;;;;5375606;26;20750;-74
2024/04/14 10:25:48;;;;;;;1.70;1.60;;;25.50;99.90;;;;;;5337751;26;20332;-74
2024/04/14 10:28:21;;;;;;;2.58;1.70;;;25.40;99.90;;;;;;5401834;26;20261;-75
2024/04/14 10:31:01;;;;;;;3.35;1.63;;;25.40;99.90;;;;;;5401360;26;20260;-74
2024/04/14 10:33:28;;;;;;;2.42;1.70;;;25.50;99.90;;;;;;5390002;26;20253;-74
2024/04/14 10:36:04;;;;;;;1.60;1.50;;;25.80;99.90;;;;;;5398017;26;20236;-74
2024/04/14 10:38:32;;;;;;;2.10;1.50;;;25.80;99.90;;;;;;5387370;26;20890;-74
2024/04/14 10:41:01;;;;;;;1.60;1.50;;;25.90;99.90;;;;;;5398979;26;20256;-74
2024/04/14 10:43:29;;;;;;;1.65;1.50;;;26.00;99.90;;;;;;5389227;26;20279;-74
2024/04/14 10:46:02;;;;;;;2.50;2.05;;;26.10;99.90;;;;;;5351136;26;20794;-74
2024/04/14 10:48:29;;;;;;;2.60;1.55;;;26.00;99.90;;;;;;5383947;26;20311;-74
2024/04/14 10:50:57;;;;;;;2.33;1.58;;;26.00;99.90;;;;;;5399563;26;20636;-74
2024/04/14 10:53:23;;;;;;;2.22;1.80;;;26.20;99.90;;;;;;5373487;26;20312;-73
2024/04/14 10:55:52;;;;;;;2.70;1.55;;;26.30;99.90;;;;;;5358341;26;20269;-76
2024/04/14 10:58:18;;;;;;;2.80;1.58;;;26.30;99.90;;;;;;5390975;26;20603;-75
2024/04/14 11:00:50;;;;;;;4.07;1.70;;;26.40;99.90;;;;;;5378317;26;20313;-73
2024/04/14 11:03:19;;;;;;;1.40;1.30;;;26.70;99.90;;;;;;5379077;26;21965;-75
2024/04/14 11:05:45;;;;;;;3.60;1.80;;;26.70;99.90;;;;;;5386981;26;20236;-74
2024/04/14 11:08:14;;;;;;;2.70;1.70;;;26.70;99.90;;;;;;5423649;26;20251;-74
2024/04/14 11:10:41;;;;;;;1.67;1.55;;;26.70;99.90;;;;;;5424084;26;20298;-75
2024/04/14 11:13:15;;;;;;;2.00;1.80;;;26.70;99.90;;;;;;5410453;26;20281;-75
2024/04/14 11:15:41;;;;;;;4.65;1.77;;;26.80;99.90;;;;;;5400037;26;20641;-75
2024/04/14 11:18:13;;;;;;;3.22;1.80;;;27.10;99.90;;;;;;5441243;26;20827;-75
2024/04/14 11:20:47;;;;;;;2.13;1.70;;;27.40;99.90;;;;;;5438005;26;20302;-74
2024/04/14 11:23:16;;;;;;;3.03;1.65;;;27.20;99.90;;;;;;5416434;26;20280;-75
2024/04/14 11:25:42;;;;;;;1.92;1.60;;;27.30;99.90;;;;;;5429379;26;20636;-75
2024/04/14 11:28:11;;;;;;;2.17;1.70;;;27.20;99.90;;;;;;5437507;26;20677;-75
2024/04/14 11:30:37;;;;;;;2.25;1.65;;;27.30;99.90;;;;;;5406348;26;20764;-75
2024/04/14 11:33:08;;;;;;;1.67;1.58;;;27.60;99.90;;;;;;5412867;26;20272;-74
2024/04/14 11:35:36;;;;;;;2.65;1.73;;;27.60;99.90;;;;;;5397300;26;20248;-74
2024/04/14 11:38:06;;;;;;;2.40;1.70;;;27.60;99.90;;;;;;5402846;26;20343;-75
2024/04/14 11:40:32;;;;;;;1.50;1.20;;;27.50;99.90;;;;;;5431108;26;20255;-75
2024/04/14 11:43:01;;;;;;;1.75;1.40;;;27.60;99.90;;;;;;5390870;26;20666;-75
2024/04/14 11:45:27;;;;;;;1.60;1.50;;;27.90;99.90;;;;;;5418075;26;20234;-75
2024/04/14 11:47:56;;;;;;;1.98;1.45;;;27.90;99.90;;;;;;5427561;26;20774;-75
2024/04/14 11:50:22;;;;;;;2.33;1.55;;;27.90;99.90;;;;;;5438900;26;20257;-75
2024/04/14 11:52:53;;;;;;;1.77;1.38;;;27.90;99.90;;;;;;5433785;26;20263;-75
2024/04/14 11:55:22;;;;;;;1.88;1.35;;;28.00;99.90;;;;;;5372840;26;20599;-75
2024/04/14 11:57:48;;;;;;;2.17;1.50;;;28.00;99.90;;;;;;5418028;26;20573;-75
2024/04/14 12:00:17;;;;;;;1.80;1.40;;;28.00;99.90;;;;;;5401224;26;20643;-75
2024/04/14 12:02:43;;;;;;;1.38;1.25;;;28.00;99.90;;;;;;5419182;26;20252;-75
2024/04/14 12:05:13;;;;;;;1.98;1.42;;;28.30;99.90;;;;;;5375811;26;20294;-75
2024/04/14 12:07:39;;;;;;;1.77;1.45;;;28.20;99.90;;;;;;5355203;26;20585;-75
2024/04/14 12:10:11;;;;;;;1.85;1.30;;;28.00;99.90;;;;;;5368052;26;20295;-75
2024/04/14 12:12:38;;;;;;;1.85;1.40;;;28.00;99.90;;;;;;5350905;26;20313;-75
2024/04/14 12:15:07;;;;;;;1.38;1.02;;;28.20;99.90;;;;;;5402844;26;20651;-75
2024/04/14 12:17:33;;;;;;;1.45;1.33;;;28.40;99.90;;;;;;5413609;26;20256;-75
2024/04/14 12:20:02;;;;;;;2.20;1.45;;;28.50;99.90;;;;;;5365901;26;20252;-75
2024/04/14 12:22:28;;;;;;;1.88;1.10;;;28.50;99.90;;;;;;5378433;26;20326;-75
2024/04/14 12:24:56;;;;;;;1.73;1.58;;;28.60;99.90;;;;;;5420153;26;20347;-75
2024/04/14 12:27:25;;;;;;;1.23;1.13;;;28.60;99.90;;;;;;5420783;26;20679;-76
2024/04/14 12:29:57;;;;;;;2.00;1.30;;;28.80;99.90;;;;;;5439214;26;20642;-75
2024/04/14 12:32:23;;;;;;;2.35;1.50;;;28.80;99.90;;;;;;5394874;26;20307;-75
2024/04/14 12:34:52;;;;;;;1.98;1.40;;;28.90;99.90;;;;;;5433397;26;20635;-75
2024/04/14 12:37:18;;;;;;;1.67;1.40;;;28.90;99.90;;;;;;5426673;26;20732;-75
2024/04/14 12:39:46;;;;;;;1.65;1.25;;;28.80;99.90;;;;;;5428931;26;20252;-75
2024/04/14 12:42:12;;;;;;;3.20;1.50;;;28.70;99.90;;;;;;5437790;26;20309;-75
2024/04/14 12:44:44;;;;;;;4.72;1.85;;;28.60;99.90;;;;;;5377990;26;20333;-75
2024/04/14 12:47:10;;;;;;;2.05;1.55;;;28.60;99.90;;;;;;5436108;26;20251;-75
2024/04/14 12:49:38;;;;;;;2.33;1.65;;;28.40;99.90;;;;;;5423922;26;20290;-75
2024/04/14 12:52:05;;;;;;;4.85;1.65;;;28.50;99.90;;;;;;5403110;26;20338;-75
2024/04/14 12:54:35;;;;;;;2.35;1.67;;;28.40;99.90;;;;;;5421595;26;20807;-76